Terminal Aerodrome Forecast
Issued by NWS

Home | Current Version | Previous Version | Text Only | Print | Product List | Glossary On
Versions: 1 2 3 4 5 6 7 8 9 10 11 12 13
608
FTUS43 KMQT 192334
TAFIWD
TAF
KIWD 192334Z 2000/2024 11009KT P6SM BKN250
     FM200600 15014KT P6SM BKN200 WS010/18040KT
     FM201700 16015G22KT P6SM VCSH OVC035 WS010/17050KT
     FM202000 16016G23KT 3SM -SHRA OVC015 WS010/17050KT
     FM202100 16016G23KT 2SM -SHRA OVC008 WS010/17050KT=

USA.gov is the U.S. government's official web portal to all federal, state and local government web resources and services.